createdAt,value
2022-09-27T00:01:54.499Z,100.00
2022-09-27T00:04:21.673Z,100.00
2022-09-27T00:06:48.555Z,100.00
2022-09-27T00:09:16.376Z,100.00
2022-09-27T00:11:43.747Z,100.00
2022-09-27T00:14:12.675Z,100.00
2022-09-27T00:16:40.490Z,100.00
2022-09-27T00:19:11.435Z,100.00
2022-09-27T00:21:38.322Z,100.00
2022-09-27T00:24:05.663Z,100.00
2022-09-27T00:26:33.032Z,100.00
2022-09-27T00:29:00.029Z,100.00
2022-09-27T00:31:29.946Z,100.00
2022-09-27T00:33:59.383Z,100.00
2022-09-27T00:36:27.589Z,100.00
2022-09-27T00:38:55.215Z,100.00
2022-09-27T00:41:24.767Z,100.00
2022-09-27T00:43:55.772Z,100.00
2022-09-27T00:46:39.793Z,100.00
2022-09-27T00:49:21.004Z,100.00
2022-09-27T00:51:50.742Z,100.00
2022-09-27T00:54:18.575Z,100.00
2022-09-27T00:56:46.398Z,100.00
2022-09-27T00:59:27.746Z,100.00
2022-09-27T01:01:55.144Z,100.00
2022-09-27T01:04:25.307Z,100.00
2022-09-27T01:06:52.834Z,100.00
2022-09-27T01:09:21.166Z,100.00
2022-09-27T01:12:04.310Z,100.00
2022-09-27T01:14:51.246Z,100.00
2022-09-27T01:17:44.915Z,100.00
2022-09-27T01:20:24.333Z,100.00
2022-09-27T01:23:04.666Z,100.00
2022-09-27T01:25:55.935Z,100.00
2022-09-27T01:28:46.805Z,100.00
2022-09-27T01:31:26.681Z,100.00
2022-09-27T01:34:08.875Z,100.00
2022-09-27T01:36:52.169Z,100.00
2022-09-27T01:39:44.116Z,100.00
2022-09-27T01:42:35.809Z,100.00
2022-09-27T01:45:02.936Z,100.00
2022-09-27T01:47:37.959Z,100.00
2022-09-27T01:50:17.138Z,100.00
2022-09-27T01:53:00.967Z,100.00
2022-09-27T01:55:32.794Z,100.00
2022-09-27T01:58:11.898Z,100.00
2022-09-27T02:00:39.931Z,100.00
2022-09-27T02:03:14.952Z,100.00
2022-09-27T02:05:52.264Z,100.00
2022-09-27T02:08:34.787Z,100.00
2022-09-27T02:11:06.994Z,100.00
2022-09-27T02:13:40.626Z,100.00
2022-09-27T02:16:36.528Z,100.00
2022-09-27T02:19:12.791Z,100.00
2022-09-27T02:21:55.050Z,100.00
2022-09-27T02:24:25.207Z,100.00
2022-09-27T02:27:02.332Z,100.00
2022-09-27T02:29:36.819Z,100.00
2022-09-27T02:32:03.845Z,100.00
2022-09-27T02:34:34.109Z,100.00
2022-09-27T02:37:01.055Z,100.00
2022-09-27T02:39:28.429Z,100.00
2022-09-27T02:41:58.484Z,100.00
2022-09-27T02:44:26.481Z,100.00
2022-09-27T02:47:14.191Z,100.00
2022-09-27T02:50:12.488Z,100.00
2022-09-27T02:52:51.195Z,100.00
2022-09-27T02:55:21.685Z,100.00
2022-09-27T02:58:16.528Z,100.00
2022-09-27T03:01:05.978Z,100.00
2022-09-27T03:04:14.051Z,100.00
2022-09-27T03:06:44.074Z,100.00
2022-09-27T03:09:25.629Z,100.00
2022-09-27T03:11:53.314Z,100.00
2022-09-27T03:14:20.478Z,100.00
2022-09-27T03:16:48.555Z,100.00
2022-09-27T03:19:18.058Z,100.00
2022-09-27T03:21:48.277Z,100.00
2022-09-27T03:24:15.236Z,100.00
2022-09-27T03:26:42.482Z,100.00
2022-09-27T03:29:10.080Z,100.00
2022-09-27T03:31:39.818Z,100.00
2022-09-27T03:34:09.125Z,100.00
2022-09-27T03:36:36.207Z,100.00
2022-09-27T03:39:03.172Z,100.00
2022-09-27T03:41:30.349Z,100.00
2022-09-27T03:43:57.952Z,100.00
2022-09-27T03:46:25.684Z,100.00
2022-09-27T03:48:53.086Z,100.00
2022-09-27T03:51:20.095Z,100.00
2022-09-27T03:53:47.924Z,100.00
2022-09-27T03:56:15.140Z,100.00
2022-09-27T03:58:42.018Z,100.00
2022-09-27T04:01:09.378Z,100.00
2022-09-27T04:03:38.199Z,100.00
2022-09-27T04:06:08.807Z,100.00
2022-09-27T04:08:36.593Z,100.00
2022-09-27T04:11:05.535Z,100.00
2022-09-27T04:13:32.982Z,100.00
2022-09-27T04:15:59.869Z,100.00
2022-09-27T04:18:29.647Z,100.00
2022-09-27T04:21:09.230Z,100.00
2022-09-27T04:23:36.727Z,100.00
2022-09-27T04:26:04.046Z,100.00
2022-09-27T04:28:31.965Z,100.00
2022-09-27T04:30:59.760Z,100.00
2022-09-27T04:33:28.261Z,100.00
2022-09-27T04:36:17.337Z,100.00
2022-09-27T04:38:49.127Z,100.00
2022-09-27T04:41:21.642Z,100.00
2022-09-27T04:43:49.753Z,100.00
2022-09-27T04:46:16.962Z,100.00
2022-09-27T04:48:44.017Z,100.00
2022-09-27T04:51:11.317Z,100.00
2022-09-27T04:53:38.615Z,100.00
2022-09-27T04:56:06.696Z,100.00
2022-09-27T04:58:35.179Z,100.00
2022-09-27T05:01:04.249Z,100.00
2022-09-27T05:03:33.678Z,100.00
2022-09-27T05:06:01.228Z,100.00
2022-09-27T05:08:28.186Z,100.00
2022-09-27T05:10:58.291Z,100.00
2022-09-27T05:13:25.499Z,100.00
2022-09-27T05:15:52.920Z,100.00
2022-09-27T05:18:22.921Z,100.00
2022-09-27T05:20:53.576Z,100.00
2022-09-27T05:23:21.502Z,100.00
2022-09-27T05:25:48.723Z,100.00
2022-09-27T05:28:15.949Z,100.00
2022-09-27T05:30:43.893Z,100.00
2022-09-27T05:33:11.337Z,100.00
2022-09-27T05:35:45.645Z,100.00
2022-09-27T05:38:12.749Z,100.00
2022-09-27T05:40:44.386Z,100.00
2022-09-27T05:43:11.582Z,100.00
2022-09-27T05:45:39.082Z,100.00
2022-09-27T05:48:08.554Z,100.00
2022-09-27T05:50:42.291Z,100.00
2022-09-27T05:53:13.382Z,100.00
2022-09-27T05:55:40.955Z,100.00
2022-09-27T05:58:11.304Z,100.00
2022-09-27T06:00:38.791Z,100.00
2022-09-27T06:03:13.038Z,100.00
2022-09-27T06:05:42.842Z,100.00
2022-09-27T06:08:14.320Z,100.00
2022-09-27T06:10:44.448Z,100.00
2022-09-27T06:13:14.066Z,100.00
2022-09-27T06:15:43.905Z,100.00
2022-09-27T06:18:14.268Z,100.00
2022-09-27T06:20:42.969Z,100.00
2022-09-27T06:23:18.541Z,100.00
2022-09-27T06:25:47.680Z,100.00
2022-09-27T06:28:15.986Z,100.00
2022-09-27T06:30:45.290Z,100.00
2022-09-27T06:33:14.850Z,100.00
2022-09-27T06:35:45.366Z,100.00
2022-09-27T06:38:15.830Z,100.00
2022-09-27T06:40:45.666Z,100.00
2022-09-27T06:43:15.380Z,100.00
2022-09-27T06:45:43.610Z,100.00
2022-09-27T06:48:20.012Z,100.00
2022-09-27T06:50:49.143Z,100.00
2022-09-27T06:53:16.994Z,100.00
2022-09-27T06:55:44.423Z,100.00
2022-09-27T06:58:30.991Z,100.00
2022-09-27T07:01:04.601Z,100.00
2022-09-27T07:03:40.114Z,100.00
2022-09-27T07:06:18.298Z,100.00
2022-09-27T07:08:45.211Z,100.00
2022-09-27T07:11:12.575Z,100.00
2022-09-27T07:13:42.907Z,100.00
2022-09-27T07:16:14.001Z,100.00
2022-09-27T07:18:41.981Z,100.00
2022-09-27T07:21:09.847Z,100.00
2022-09-27T07:23:37.202Z,100.00
2022-09-27T07:26:06.900Z,100.00
2022-09-27T07:28:35.017Z,100.00
2022-09-27T07:31:03.406Z,100.00
2022-09-27T07:33:31.163Z,100.00
2022-09-27T07:35:59.645Z,100.00
2022-09-27T07:38:27.140Z,100.00
2022-09-27T07:40:54.507Z,100.00
2022-09-27T07:43:21.462Z,100.00
2022-09-27T07:45:49.321Z,100.00
2022-09-27T07:48:16.922Z,100.00
2022-09-27T07:50:44.015Z,100.00
2022-09-27T07:53:13.801Z,100.00
2022-09-27T07:55:44.618Z,100.00
2022-09-27T07:58:12.297Z,100.00
2022-09-27T08:00:42.493Z,100.00
2022-09-27T08:03:17.637Z,100.00
2022-09-27T08:05:47.294Z,100.00
2022-09-27T08:08:15.749Z,100.00
2022-09-27T08:10:44.562Z,100.00
2022-09-27T08:13:11.926Z,100.00
2022-09-27T08:15:42.556Z,100.00
2022-09-27T08:18:12.969Z,100.00
2022-09-27T08:20:42.606Z,100.00
2022-09-27T08:23:14.294Z,100.00
2022-09-27T08:25:42.159Z,100.00
2022-09-27T08:28:13.702Z,100.00
2022-09-27T08:30:44.065Z,100.00
2022-09-27T08:33:14.273Z,100.00
2022-09-27T08:35:44.187Z,100.00
2022-09-27T08:38:12.606Z,100.00
2022-09-27T08:40:57.982Z,100.00
2022-09-27T08:43:40.622Z,100.00
2022-09-27T08:46:20.217Z,100.00
2022-09-27T08:48:51.656Z,100.00
2022-09-27T08:51:21.842Z,100.00
2022-09-27T08:53:53.952Z,100.00
2022-09-27T08:56:21.573Z,100.00
2022-09-27T08:58:53.030Z,100.00
2022-09-27T09:01:21.436Z,100.00
2022-09-27T09:03:55.928Z,100.00
2022-09-27T09:06:28.854Z,100.00
2022-09-27T09:09:20.338Z,100.00
2022-09-27T09:12:36.918Z,100.00
2022-09-27T09:15:09.193Z,100.00
2022-09-27T09:17:55.855Z,100.00
2022-09-27T09:20:46.033Z,100.00
2022-09-27T09:23:57.705Z,100.00
2022-09-27T09:26:51.912Z,100.00
2022-09-27T09:29:46.345Z,100.00
2022-09-27T09:32:45.601Z,100.00
2022-09-27T09:35:19.509Z,100.00
2022-09-27T09:37:53.201Z,100.00
2022-09-27T09:40:25.244Z,100.00
2022-09-27T09:42:58.701Z,100.00
2022-09-27T09:45:31.064Z,100.00
2022-09-27T09:48:11.381Z,100.00
2022-09-27T09:50:49.613Z,100.00
2022-09-27T09:53:35.506Z,100.00
2022-09-27T09:56:05.700Z,100.00
2022-09-27T09:58:44.884Z,100.00
2022-09-27T10:01:26.867Z,100.00
2022-09-27T10:03:56.058Z,100.00
2022-09-27T10:06:25.208Z,100.00
2022-09-27T10:08:55.867Z,100.00
2022-09-27T10:11:27.320Z,100.00
2022-09-27T10:13:58.429Z,100.00
2022-09-27T10:16:25.823Z,100.00
2022-09-27T10:18:58.089Z,100.00
2022-09-27T10:21:28.726Z,100.00
2022-09-27T10:24:03.436Z,100.00
2022-09-27T10:26:33.009Z,100.00
2022-09-27T10:29:19.682Z,100.00
2022-09-27T10:31:48.407Z,100.00
2022-09-27T10:34:25.275Z,100.00
2022-09-27T10:37:04.601Z,100.00
2022-09-27T10:39:32.941Z,100.00
2022-09-27T10:42:00.221Z,100.00
2022-09-27T10:44:34.377Z,100.00
2022-09-27T10:47:07.574Z,100.00
2022-09-27T10:49:37.338Z,100.00
2022-09-27T10:52:15.576Z,100.00
2022-09-27T10:54:43.313Z,100.00
2022-09-27T10:57:21.950Z,100.00
2022-09-27T11:00:20.626Z,99.68
2022-09-27T11:02:57.896Z,98.85
2022-09-27T11:05:29.726Z,95.44
2022-09-27T11:07:59.608Z,95.83
2022-09-27T11:10:38.024Z,95.28
2022-09-27T11:13:17.293Z,95.02
2022-09-27T11:16:09.458Z,95.56
2022-09-27T11:18:48.252Z,96.35
2022-09-27T11:21:27.198Z,96.98
2022-09-27T11:24:35.849Z,99.62
2022-09-27T11:27:21.652Z,99.14
2022-09-27T11:30:13.753Z,97.25
2022-09-27T11:32:50.296Z,97.39
2022-09-27T11:35:33.744Z,97.17
2022-09-27T11:38:52.727Z,100.00
2022-09-27T11:41:26.827Z,100.00
2022-09-27T11:44:21.732Z,100.00
2022-09-27T11:47:12.823Z,100.00
2022-09-27T11:49:44.945Z,100.00
2022-09-27T11:52:26.284Z,100.00
2022-09-27T11:55:12.369Z,100.00
2022-09-27T11:57:47.585Z,100.00
2022-09-27T12:00:24.300Z,100.00
2022-09-27T12:03:15.386Z,100.00
2022-09-27T12:06:07.493Z,100.00
2022-09-27T12:08:47.524Z,100.00
2022-09-27T12:11:25.728Z,100.00
2022-09-27T12:14:26.756Z,100.00
2022-09-27T12:16:56.691Z,100.00
2022-09-27T12:19:27.298Z,98.46
2022-09-27T12:22:01.831Z,97.88
2022-09-27T12:24:31.038Z,97.29
2022-09-27T12:27:09.687Z,98.05
2022-09-27T12:29:39.580Z,97.60
2022-09-27T12:32:24.449Z,93.54
2022-09-27T12:34:57.079Z,87.71
2022-09-27T12:37:38.147Z,85.43
2022-09-27T12:40:13.446Z,85.04
2022-09-27T12:42:45.194Z,84.98
2022-09-27T12:45:15.079Z,82.00
2022-09-27T12:47:47.713Z,89.01
2022-09-27T12:50:39.944Z,86.39
2022-09-27T12:53:14.175Z,84.16
2022-09-27T12:55:52.111Z,80.78
2022-09-27T12:59:05.810Z,78.58
2022-09-27T13:02:00.608Z,78.22
2022-09-27T13:04:35.034Z,81.37
2022-09-27T13:07:35.289Z,82.26
2022-09-27T13:10:42.683Z,84.60
2022-09-27T13:13:16.031Z,82.95
2022-09-27T13:15:45.259Z,80.41
2022-09-27T13:18:56.079Z,79.61
2022-09-27T13:21:51.204Z,85.94
2022-09-27T13:24:40.627Z,89.05
2022-09-27T13:27:23.562Z,89.94
2022-09-27T13:29:51.342Z,89.62
2022-09-27T13:32:23.553Z,86.46
2022-09-27T13:34:56.645Z,85.26
2022-09-27T13:37:47.274Z,85.44
2022-09-27T13:40:18.525Z,80.67
2022-09-27T13:43:09.208Z,82.40
2022-09-27T13:46:19.071Z,80.62
2022-09-27T13:48:56.105Z,82.96
2022-09-27T13:51:39.970Z,84.00
2022-09-27T13:54:41.706Z,83.95
2022-09-27T13:57:42.226Z,88.00
2022-09-27T14:00:14.696Z,91.72
2022-09-27T14:02:54.450Z,92.99
2022-09-27T14:05:33.254Z,90.98
2022-09-27T14:08:02.367Z,92.38
2022-09-27T14:10:30.645Z,94.36
2022-09-27T14:12:59.108Z,91.85
2022-09-27T14:15:28.181Z,93.46
2022-09-27T14:17:56.311Z,94.09
2022-09-27T14:20:43.498Z,94.10
2022-09-27T14:23:21.536Z,97.39
2022-09-27T14:25:53.478Z,100.00
2022-09-27T14:28:23.910Z,100.00
2022-09-27T14:31:12.112Z,100.00
2022-09-27T14:33:40.418Z,100.00
2022-09-27T14:36:39.908Z,100.00
2022-09-27T14:39:14.060Z,100.00
2022-09-27T14:41:41.185Z,100.00
2022-09-27T14:44:25.886Z,100.00
2022-09-27T14:47:09.530Z,100.00
2022-09-27T14:49:47.111Z,100.00
2022-09-27T14:52:19.279Z,100.00
2022-09-27T14:55:15.420Z,100.00
2022-09-27T14:57:49.760Z,100.00
2022-09-27T15:00:24.592Z,100.00
2022-09-27T15:02:55.454Z,100.00
2022-09-27T15:05:26.202Z,100.00
2022-09-27T15:07:55.717Z,100.00
2022-09-27T15:10:27.306Z,100.00
2022-09-27T15:12:57.939Z,100.00
2022-09-27T15:15:27.659Z,100.00
2022-09-27T15:17:54.547Z,100.00
2022-09-27T15:20:32.211Z,100.00
2022-09-27T15:23:03.585Z,100.00
2022-09-27T15:25:36.836Z,100.00
2022-09-27T15:28:06.481Z,100.00
2022-09-27T15:30:36.568Z,100.00
2022-09-27T15:33:04.375Z,100.00
2022-09-27T15:35:33.992Z,100.00
2022-09-27T15:38:24.883Z,100.00
2022-09-27T15:40:51.936Z,100.00
2022-09-27T15:43:36.005Z,100.00
2022-09-27T15:46:31.656Z,100.00
2022-09-27T15:49:16.965Z,100.00
2022-09-27T15:51:48.793Z,100.00
2022-09-27T15:54:27.308Z,100.00
2022-09-27T15:56:56.188Z,100.00
2022-09-27T15:59:26.642Z,100.00
2022-09-27T16:01:58.609Z,100.00
2022-09-27T16:04:26.541Z,100.00
2022-09-27T16:06:54.498Z,100.00
2022-09-27T16:09:21.933Z,100.00
2022-09-27T16:11:49.962Z,100.00
2022-09-27T16:14:18.513Z,100.00
2022-09-27T16:16:48.010Z,100.00
2022-09-27T16:19:15.192Z,100.00
2022-09-27T16:21:45.786Z,100.00
2022-09-27T16:24:12.688Z,100.00
2022-09-27T16:26:40.135Z,100.00
2022-09-27T16:29:12.220Z,100.00
2022-09-27T16:31:40.413Z,100.00
2022-09-27T16:34:09.419Z,100.00
2022-09-27T16:36:36.344Z,100.00
2022-09-27T16:39:06.880Z,100.00
2022-09-27T16:41:34.802Z,100.00
2022-09-27T16:44:17.300Z,100.00
2022-09-27T16:46:48.137Z,100.00
2022-09-27T16:49:33.793Z,100.00
2022-09-27T16:52:01.022Z,100.00
2022-09-27T16:54:29.321Z,100.00
2022-09-27T16:56:58.284Z,100.00
2022-09-27T16:59:25.531Z,100.00
2022-09-27T17:01:52.968Z,100.00
2022-09-27T17:04:20.345Z,100.00
2022-09-27T17:06:47.453Z,100.00
2022-09-27T17:09:14.328Z,100.00
2022-09-27T17:11:41.168Z,100.00
2022-09-27T17:14:14.179Z,100.00
2022-09-27T17:16:41.104Z,100.00
2022-09-27T17:19:09.152Z,100.00
2022-09-27T17:21:38.200Z,100.00
2022-09-27T17:24:05.679Z,100.00
2022-09-27T17:26:33.067Z,100.00
2022-09-27T17:29:00.900Z,100.00
2022-09-27T17:31:28.823Z,100.00
2022-09-27T17:33:57.987Z,100.00
2022-09-27T17:36:27.602Z,100.00
2022-09-27T17:38:54.751Z,100.00
2022-09-27T17:41:24.234Z,100.00
2022-09-27T17:43:57.703Z,100.00
2022-09-27T17:46:33.193Z,100.00
2022-09-27T17:49:18.885Z,100.00
2022-09-27T17:51:48.086Z,100.00
2022-09-27T17:54:16.652Z,100.00
2022-09-27T17:56:43.678Z,100.00
2022-09-27T17:59:12.309Z,100.00
2022-09-27T18:01:39.636Z,100.00
2022-09-27T18:04:09.793Z,100.00
2022-09-27T18:06:44.957Z,100.00
2022-09-27T18:09:14.240Z,100.00
2022-09-27T18:11:41.258Z,100.00
2022-09-27T18:14:10.219Z,100.00
2022-09-27T18:16:41.247Z,100.00
2022-09-27T18:19:10.297Z,100.00
2022-09-27T18:21:37.698Z,100.00
2022-09-27T18:24:06.922Z,100.00
2022-09-27T18:26:37.917Z,100.00
2022-09-27T18:29:07.586Z,100.00
2022-09-27T18:31:34.481Z,100.00
2022-09-27T18:34:02.949Z,100.00
2022-09-27T18:36:30.126Z,100.00
2022-09-27T18:39:01.974Z,100.00
2022-09-27T18:41:31.182Z,100.00
2022-09-27T18:44:04.765Z,100.00
2022-09-27T18:46:36.140Z,100.00
2022-09-27T18:49:05.825Z,100.00
2022-09-27T18:51:33.131Z,100.00
2022-09-27T18:54:02.554Z,100.00
2022-09-27T18:56:30.058Z,100.00
2022-09-27T18:58:57.493Z,100.00
2022-09-27T19:01:25.711Z,100.00
2022-09-27T19:03:53.165Z,100.00
2022-09-27T19:06:22.156Z,100.00
2022-09-27T19:08:58.552Z,100.00
2022-09-27T19:11:27.641Z,100.00
2022-09-27T19:13:55.973Z,100.00
2022-09-27T19:16:24.244Z,100.00
2022-09-27T19:18:51.720Z,100.00
2022-09-27T19:21:20.675Z,100.00
2022-09-27T19:23:48.850Z,100.00
2022-09-27T19:26:18.524Z,100.00
2022-09-27T19:28:46.314Z,100.00
2022-09-27T19:31:15.789Z,100.00
2022-09-27T19:33:43.070Z,100.00
2022-09-27T19:36:14.469Z,100.00
2022-09-27T19:38:41.371Z,100.00
2022-09-27T19:41:10.594Z,100.00
2022-09-27T19:43:37.543Z,100.00
2022-09-27T19:46:05.816Z,100.00
2022-09-27T19:48:33.338Z,100.00
2022-09-27T19:51:01.173Z,100.00
2022-09-27T19:53:32.158Z,100.00
2022-09-27T19:56:00.503Z,100.00
2022-09-27T19:58:28.550Z,100.00
2022-09-27T20:01:02.154Z,100.00
2022-09-27T20:03:29.991Z,100.00
2022-09-27T20:05:58.718Z,100.00
2022-09-27T20:08:29.332Z,100.00
2022-09-27T20:11:01.401Z,100.00
2022-09-27T20:13:32.653Z,100.00
2022-09-27T20:16:13.008Z,100.00
2022-09-27T20:18:51.593Z,100.00
2022-09-27T20:21:20.633Z,100.00
2022-09-27T20:23:51.779Z,100.00
2022-09-27T20:26:20.329Z,100.00
2022-09-27T20:28:55.019Z,100.00
2022-09-27T20:31:23.797Z,100.00
2022-09-27T20:33:51.100Z,100.00
2022-09-27T20:36:25.066Z,100.00
2022-09-27T20:38:58.234Z,100.00
2022-09-27T20:41:30.360Z,100.00
2022-09-27T20:44:03.587Z,100.00
2022-09-27T20:46:30.914Z,100.00
2022-09-27T20:49:00.351Z,100.00
2022-09-27T20:51:27.717Z,100.00
2022-09-27T20:53:54.633Z,100.00
2022-09-27T20:56:27.063Z,100.00
2022-09-27T20:58:55.342Z,100.00
2022-09-27T21:01:23.584Z,100.00
2022-09-27T21:03:58.390Z,100.00
2022-09-27T21:06:27.080Z,100.00
2022-09-27T21:08:55.054Z,100.00
2022-09-27T21:11:22.604Z,100.00
2022-09-27T21:13:50.754Z,100.00
2022-09-27T21:16:19.775Z,100.00
2022-09-27T21:18:52.316Z,100.00
2022-09-27T21:21:20.310Z,100.00
2022-09-27T21:23:47.841Z,100.00
2022-09-27T21:26:16.827Z,100.00
2022-09-27T21:28:49.133Z,100.00
2022-09-27T21:31:22.375Z,100.00
2022-09-27T21:33:54.056Z,100.00
2022-09-27T21:36:25.702Z,100.00
2022-09-27T21:38:52.850Z,98.67
2022-09-27T21:41:19.857Z,98.06
2022-09-27T21:43:47.874Z,97.72
2022-09-27T21:46:23.773Z,97.36
2022-09-27T21:48:53.005Z,98.22
2022-09-27T21:51:25.161Z,99.34
2022-09-27T21:53:57.131Z,100.00
2022-09-27T21:56:26.539Z,100.00
2022-09-27T21:58:53.606Z,100.00
2022-09-27T22:01:22.846Z,100.00
2022-09-27T22:03:51.556Z,100.00
2022-09-27T22:06:20.472Z,100.00
2022-09-27T22:08:48.984Z,100.00
2022-09-27T22:11:18.530Z,99.85
2022-09-27T22:13:45.441Z,100.00
2022-09-27T22:16:14.818Z,100.00
2022-09-27T22:18:46.221Z,100.00
2022-09-27T22:21:19.594Z,97.50
2022-09-27T22:23:46.840Z,97.46
2022-09-27T22:26:16.651Z,99.21
2022-09-27T22:28:44.522Z,99.52
2022-09-27T22:31:14.986Z,100.00
2022-09-27T22:33:42.506Z,100.00
2022-09-27T22:36:09.384Z,99.91
2022-09-27T22:38:36.554Z,100.00
2022-09-27T22:41:04.345Z,100.00
2022-09-27T22:43:31.319Z,100.00
2022-09-27T22:46:00.293Z,98.68
2022-09-27T22:48:28.726Z,100.00
2022-09-27T22:50:57.083Z,99.24
2022-09-27T22:53:28.410Z,98.59
2022-09-27T22:56:04.751Z,98.50
2022-09-27T22:58:32.101Z,100.00
2022-09-27T23:00:59.573Z,99.08
2022-09-27T23:03:26.704Z,100.00
2022-09-27T23:05:53.860Z,100.00
2022-09-27T23:08:21.506Z,100.00
2022-09-27T23:10:48.344Z,100.00
2022-09-27T23:13:15.471Z,100.00
2022-09-27T23:15:42.342Z,100.00
2022-09-27T23:18:12.642Z,100.00
2022-09-27T23:20:40.214Z,99.51
2022-09-27T23:23:15.398Z,99.18
2022-09-27T23:25:42.535Z,98.56
2022-09-27T23:28:11.793Z,99.53
2022-09-27T23:30:40.046Z,99.79
2022-09-27T23:33:08.346Z,100.00
2022-09-27T23:35:35.201Z,99.84
2022-09-27T23:38:02.038Z,95.80
2022-09-27T23:40:29.200Z,95.92
2022-09-27T23:42:58.254Z,95.76
2022-09-27T23:45:27.702Z,94.14
2022-09-27T23:47:57.607Z,95.41
2022-09-27T23:50:24.878Z,96.91
2022-09-27T23:52:51.792Z,96.34
2022-09-27T23:55:18.958Z,95.61
2022-09-27T23:57:45.812Z,98.71
